logo
Rechercher aéroport 
image banner adimage banner adimage banner ad
image banner ad

ZYTL - Dalian/Zhoushuizi

Situé à Dalian, China

ICAO - ZYTL, IATA - DLC

Données fournies par Airmate  

Information générale

Coordonnées: N38°58'0" E121°32'24"
Élévation : 108 feet MSL.
 
Voir autres Aéroports à Liaoning Province

Données opérationnelles

Special qualification required
Heure actuelle UTC:
Heure actuelle locale:
Météo
METAR: ZYTL 110600Z 33005MPS 300V010 1200 R28/1300U -SN SCT033 M07/M09 Q1025 BECMG TL0700 1600
TAF: TAF ZYTL 110315Z 1106/1206 34004G12MPS 6000 BKN033 TXM03/1106Z TNM07/1121Z TEMPO 1106/1110 1200 -SN BR
Voir NOTAMs / SUP AIP / TFR affectant cet aéroport [VIEW]
Fréquences de communication: [VIEW]

Pistes:

Identifiant RWYQFULongueur (ft)Largeur (ft)SurfaceLDA (ft)
1096°10827148CON
28276°10827148CON

Coordonnées de l'aéroport

Adresse: Dalian China

Vue satellite de ZYTL